Epic Balta — 9VED8 — position and weather

sailwx.info

Track history (hours):
 
Tides and Currents Weather Stations Pressure Air Temp Water Temp Dewpoint Dewpoint Depression Visibility Wind Speed Wind Dir Waves Ship Positions

Epic Balta

Last reported at 2017-Jan-12 11:11 UTC. Time now 2017-Jan-18 04:13 UTC.
Position N 10°49' W 061°51'.

Length 100 m; draft 5.4 m.

Type: Ship (hazmat cat D). MMSI: 565525000.

Date/timePositionNaut miles runAvg speedWind from/ knotsBaromVisibWave heightAir tempDewpointWater temp
2017-Jan-12 11:11N 10°49' W 061°51'913.4
2017-Jan-12 10:33N 10°41' W 061°48'1312.6
2017-Jan-12 09:33N 10°31' W 061°40'1111.4
2017-Jan-12 08:33N 10°23' W 061°32'0 0.1
2017-Jan-12 07:34N 10°23' W 061°32'3 2.8
2017-Jan-12 06:33N 10°23' W 061°29'0 0.0
2017-Jan-11 12:21N 10°23' W 061°29'3 3.3
2017-Jan-11 11:34N 10°23' W 061°32'2 1.8
2017-Jan-11 10:34N 10°22' W 061°33'1 0.6
2017-Jan-11 09:32N 10°22' W 061°34'0 0.0
2017-Jan-11 08:32N 10°22' W 061°34'0 0.0
2017-Jan-11 07:32N 10°22' W 061°34'0 0.0
2017-Jan-11 06:32N 10°22' W 061°34'0 0.0
2017-Jan-11 05:32N 10°22' W 061°34'0 0.0
2017-Jan-11 04:32N 10°22' W 061°34'0 0.0
2017-Jan-11 03:32N 10°22' W 061°34'0 0.0
2017-Jan-11 02:32N 10°22' W 061°34'0 0.0
2017-Jan-11 01:32N 10°22' W 061°34'0 0.0
2017-Jan-11 00:32N 10°22' W 061°34'0 0.0
2017-Jan-10 23:32N 10°22' W 061°34'0 0.0
2017-Jan-10 22:32N 10°22' W 061°34'0 0.0
2017-Jan-10 21:32N 10°22' W 061°34'0 0.0
2017-Jan-10 20:32N 10°22' W 061°34'0 0.0
2017-Jan-10 19:32N 10°22' W 061°34'0 0.0
2017-Jan-10 18:32N 10°22' W 061°34'0 0.0
2017-Jan-10 17:32N 10°22' W 061°34'0 0.0
2017-Jan-10 16:32N 10°22' W 061°34'0 0.0
2017-Jan-10 15:32N 10°22' W 061°34'0 0.0
2017-Jan-10 14:29N 10°22' W 061°34'0 0.0
2017-Jan-10 13:32N 10°22' W 061°34'0 0.0
2017-Jan-10 12:32N 10°22' W 061°34'0 0.0
2017-Jan-10 11:32N 10°22' W 061°34'0 0.0
2017-Jan-10 10:32N 10°22' W 061°34'0 0.0
2017-Jan-10 09:32N 10°22' W 061°34'0 0.0
2017-Jan-10 08:32N 10°22' W 061°34'0 0.0
2017-Jan-10 07:32N 10°22' W 061°34'3 2.7
2017-Jan-10 06:33N 10°25' W 061°35'1313.0
2017-Jan-10 05:34N 10°34' W 061°44'1212.0
2017-Jan-10 04:33N 10°45' W 061°49'1211.2
2017-Jan-10 03:29N 10°55' W 061°56'32412.3
2017-Jan-09 01:13N 16°17' W 062°33'913.1
2017-Jan-09 00:33N 16°25' W 062°34'1312.6
2017-Jan-08 23:33N 16°38' W 062°36'1512.7
2017-Jan-08 22:24N 16°52' W 062°37'12 0.2
2017-Jan-06 21:33N 16°41' W 062°33'1212.4
2017-Jan-06 20:33N 16°29' W 062°32'1712.0
2017-Jan-06 19:07N 16°12' W 062°29'  
Track history (hours):
 
Tides and Currents Weather Stations Pressure Air Temp Water Temp Dewpoint Dewpoint Depression Visibility Wind Speed Wind Dir Waves Ship Positions

Epic Balta

Last reported at 2017-Jan-12 11:11 UTC. Time now 2017-Jan-18 04:13 UTC.
Position N 10°49' W 061°51'.

Length 100 m; draft 5.4 m.

Type: Ship (hazmat cat D). MMSI: 565525000.

Date/timePositionNaut miles runAvg speedWind from/ knotsBaromVisibWave heightAir tempDewpointWater temp
2017-Jan-12 11:11N 10°49' W 061°51'913.4
2017-Jan-12 10:33N 10°41' W 061°48'1312.6
2017-Jan-12 09:33N 10°31' W 061°40'1111.4
2017-Jan-12 08:33N 10°23' W 061°32'0 0.1
2017-Jan-12 07:34N 10°23' W 061°32'3 2.8
2017-Jan-12 06:33N 10°23' W 061°29'0 0.0
2017-Jan-11 12:21N 10°23' W 061°29'3 3.3
2017-Jan-11 11:34N 10°23' W 061°32'2 1.8
2017-Jan-11 10:34N 10°22' W 061°33'1 0.6
2017-Jan-11 09:32N 10°22' W 061°34'0 0.0
2017-Jan-11 08:32N 10°22' W 061°34'0 0.0
2017-Jan-11 07:32N 10°22' W 061°34'0 0.0
2017-Jan-11 06:32N 10°22' W 061°34'0 0.0
2017-Jan-11 05:32N 10°22' W 061°34'0 0.0
2017-Jan-11 04:32N 10°22' W 061°34'0 0.0
2017-Jan-11 03:32N 10°22' W 061°34'0 0.0
2017-Jan-11 02:32N 10°22' W 061°34'0 0.0
2017-Jan-11 01:32N 10°22' W 061°34'0 0.0
2017-Jan-11 00:32N 10°22' W 061°34'0 0.0
2017-Jan-10 23:32N 10°22' W 061°34'0 0.0
2017-Jan-10 22:32N 10°22' W 061°34'0 0.0
2017-Jan-10 21:32N 10°22' W 061°34'0 0.0
2017-Jan-10 20:32N 10°22' W 061°34'0 0.0
2017-Jan-10 19:32N 10°22' W 061°34'0 0.0
2017-Jan-10 18:32N 10°22' W 061°34'0 0.0
2017-Jan-10 17:32N 10°22' W 061°34'0 0.0
2017-Jan-10 16:32N 10°22' W 061°34'0 0.0
2017-Jan-10 15:32N 10°22' W 061°34'0 0.0
2017-Jan-10 14:29N 10°22' W 061°34'0 0.0
2017-Jan-10 13:32N 10°22' W 061°34'0 0.0
2017-Jan-10 12:32N 10°22' W 061°34'0 0.0
2017-Jan-10 11:32N 10°22' W 061°34'0 0.0
2017-Jan-10 10:32N 10°22' W 061°34'0 0.0
2017-Jan-10 09:32N 10°22' W 061°34'0 0.0
2017-Jan-10 08:32N 10°22' W 061°34'0 0.0
2017-Jan-10 07:32N 10°22' W 061°34'3 2.7
2017-Jan-10 06:33N 10°25' W 061°35'1313.0
2017-Jan-10 05:34N 10°34' W 061°44'1212.0
2017-Jan-10 04:33N 10°45' W 061°49'1211.2
2017-Jan-10 03:29N 10°55' W 061°56'32412.3
2017-Jan-09 01:13N 16°17' W 062°33'913.1
2017-Jan-09 00:33N 16°25' W 062°34'1312.6
2017-Jan-08 23:33N 16°38' W 062°36'1512.7
2017-Jan-08 22:24N 16°52' W 062°37'12 0.2
2017-Jan-06 21:33N 16°41' W 062°33'1212.4
2017-Jan-06 20:33N 16°29' W 062°32'1712.0
2017-Jan-06 19:07N 16°12' W 062°29'  

Dump ship's entire track history